createdAt,value
2019-05-11T00:00:12.724Z,95108.58
2019-05-11T00:02:41.897Z,95104.73
2019-05-11T00:05:11.185Z,95105.23
2019-05-11T00:07:40.400Z,95114.22
2019-05-11T00:10:09.802Z,95104.33
2019-05-11T00:12:38.977Z,95094.38
2019-05-11T00:15:08.587Z,95096.74
2019-05-11T00:17:37.826Z,95099.89
2019-05-11T00:20:07.991Z,95083.79
2019-05-11T00:22:37.313Z,95069.09
2019-05-11T00:25:06.657Z,95062.53
2019-05-11T00:27:35.799Z,95076.73
2019-05-11T00:30:06.720Z,95072.02
2019-05-11T00:32:35.958Z,95074.72
2019-05-11T00:35:05.366Z,95066.78
2019-05-11T00:37:34.539Z,95063.73
2019-05-11T00:40:13.846Z,95059.19
2019-05-11T00:42:34.650Z,95061.81
2019-05-11T00:45:03.910Z,95045.02
2019-05-11T00:47:33.100Z,95042.39
2019-05-11T00:50:02.216Z,95041.92
2019-05-11T00:52:31.668Z,95040.30
2019-05-11T00:55:00.912Z,95045.45
2019-05-11T00:57:30.172Z,95038.08
2019-05-11T00:59:59.320Z,95050.38
2019-05-11T01:02:28.521Z,95056.84
2019-05-11T01:04:57.732Z,95041.36
2019-05-11T01:07:26.972Z,95028.33
2019-05-11T01:09:56.117Z,95027.88
2019-05-11T01:12:25.328Z,95021.48
2019-05-11T01:14:54.497Z,95004.98
2019-05-11T01:17:23.713Z,95004.66
2019-05-11T01:19:52.893Z,94997.33
2019-05-11T01:22:22.100Z,95002.26
2019-05-11T01:24:51.298Z,94998.38
2019-05-11T01:27:20.473Z,95003.61
2019-05-11T01:29:49.654Z,94997.02
2019-05-11T01:32:18.836Z,94990.23
2019-05-11T01:34:48.027Z,94993.50
2019-05-11T01:37:17.212Z,94990.41
2019-05-11T01:39:46.384Z,94984.21
2019-05-11T01:42:15.544Z,94986.88
2019-05-11T01:44:44.777Z,94965.69
2019-05-11T01:47:13.974Z,94976.16
2019-05-11T01:49:43.108Z,94974.55
2019-05-11T01:52:12.269Z,94976.95
2019-05-11T01:54:41.412Z,94982.02
2019-05-11T01:57:10.605Z,94983.02
2019-05-11T01:59:39.736Z,94962.10
2019-05-11T02:02:08.907Z,94960.32
2019-05-11T02:04:38.049Z,94962.50
2019-05-11T02:07:07.158Z,94964.24
2019-05-11T02:09:36.314Z,94962.41
2019-05-11T02:12:05.428Z,94962.02
2019-05-11T02:14:34.544Z,94965.81
2019-05-11T02:17:03.689Z,94958.74
2019-05-11T02:19:32.784Z,94959.12
2019-05-11T02:22:01.897Z,94967.41
2019-05-11T02:24:31.076Z,94963.43
2019-05-11T02:27:00.182Z,94958.20
2019-05-11T02:29:29.323Z,94957.83
2019-05-11T02:31:58.425Z,94959.12
2019-05-11T02:34:27.557Z,94961.65
2019-05-11T02:36:56.888Z,94961.65
2019-05-11T02:39:25.991Z,94959.51
2019-05-11T02:41:55.113Z,94954.04
2019-05-11T02:44:24.227Z,94950.90
2019-05-11T02:46:53.375Z,94950.98
2019-05-11T02:49:22.498Z,94945.89
2019-05-11T02:51:51.934Z,94937.97
2019-05-11T02:54:21.333Z,94936.32
2019-05-11T02:56:50.458Z,94927.52
2019-05-11T02:59:19.572Z,94930.19
2019-05-11T03:01:48.665Z,94923.34
2019-05-11T03:04:17.808Z,94917.72
2019-05-11T03:06:46.951Z,94904.31
2019-05-11T03:09:16.129Z,94904.78
2019-05-11T03:11:55.689Z,94910.84
2019-05-11T03:14:16.113Z,94904.65
2019-05-11T03:16:45.232Z,94896.72
2019-05-11T03:19:14.377Z,94892.10
2019-05-11T03:21:43.524Z,94889.80
2019-05-11T03:24:12.682Z,94887.97
2019-05-11T03:26:41.792Z,94885.88
2019-05-11T03:29:10.912Z,94884.04
2019-05-11T03:31:40.054Z,94881.56
2019-05-11T03:34:09.190Z,94867.52
2019-05-11T03:36:38.338Z,94865.83
2019-05-11T03:39:07.472Z,94856.81
2019-05-11T03:41:36.608Z,94857.98
2019-05-11T03:44:05.817Z,94854.98
2019-05-11T03:46:34.964Z,94850.58
2019-05-11T03:49:04.038Z,94849.22
2019-05-11T03:51:33.164Z,94845.74
2019-05-11T03:54:02.304Z,94840.66
2019-05-11T03:56:31.432Z,94840.59
2019-05-11T03:59:00.550Z,94841.05
2019-05-11T04:01:29.898Z,94837.98
2019-05-11T04:03:58.995Z,94844.52
2019-05-11T04:06:28.114Z,94844.05
2019-05-11T04:08:57.241Z,94849.80
2019-05-11T04:11:26.369Z,94846.61
2019-05-11T04:13:55.475Z,94850.53
2019-05-11T04:16:24.641Z,94854.75
2019-05-11T04:18:53.857Z,94848.22
2019-05-11T04:21:22.985Z,94852.75
2019-05-11T04:23:52.084Z,94863.47
2019-05-11T04:26:21.241Z,94868.62
2019-05-11T04:28:50.426Z,94867.84
2019-05-11T04:31:19.601Z,94872.30
2019-05-11T04:33:48.721Z,94888.77
2019-05-11T04:36:17.864Z,94909.62
2019-05-11T04:38:47.040Z,94920.79
2019-05-11T04:41:16.190Z,94912.73
2019-05-11T04:43:45.342Z,94909.23
2019-05-11T04:46:14.487Z,94910.72
2019-05-11T04:48:43.640Z,94899.48
2019-05-11T04:51:12.812Z,94899.31
2019-05-11T04:53:41.975Z,94884.02
2019-05-11T04:56:11.115Z,94895.78
2019-05-11T04:58:40.229Z,94888.89
2019-05-11T05:01:09.360Z,94890.32
2019-05-11T05:03:41.174Z,94898.50
2019-05-11T05:06:21.760Z,94904.52
2019-05-11T05:08:40.290Z,94906.61
2019-05-11T05:11:09.634Z,94913.19
2019-05-11T05:13:38.785Z,94919.98
2019-05-11T05:16:07.936Z,94931.17
2019-05-11T05:18:37.086Z,94935.55
2019-05-11T05:21:06.218Z,94940.52
2019-05-11T05:23:35.352Z,94942.69
2019-05-11T05:26:04.472Z,94945.17
2019-05-11T05:28:33.627Z,94956.27
2019-05-11T05:31:02.760Z,94951.88
2019-05-11T05:33:31.857Z,94943.20
2019-05-11T05:36:00.966Z,94950.79
2019-05-11T05:38:30.166Z,94961.68
2019-05-11T05:40:59.375Z,94949.35
2019-05-11T05:43:28.741Z,94954.63
2019-05-11T05:45:58.104Z,94961.38
2019-05-11T05:48:27.330Z,94977.20
2019-05-11T05:50:56.539Z,94990.58
2019-05-11T05:53:25.709Z,94988.36
2019-05-11T05:55:54.803Z,94988.75
2019-05-11T05:58:23.985Z,94985.61
2019-05-11T06:00:53.107Z,94972.80
2019-05-11T06:03:22.263Z,94960.86
2019-05-11T06:05:51.386Z,94930.27
2019-05-11T06:08:20.548Z,94885.56
2019-05-11T06:10:50.052Z,94889.61
2019-05-11T06:13:19.311Z,94899.66
2019-05-11T06:15:48.429Z,94869.56
2019-05-11T06:18:17.585Z,94882.34
2019-05-11T06:20:47.168Z,94886.81
2019-05-11T06:23:16.334Z,94896.13
2019-05-11T06:25:45.475Z,94897.50
2019-05-11T06:28:14.634Z,94901.87
2019-05-11T06:30:43.767Z,94917.77
2019-05-11T06:33:12.940Z,94950.06
2019-05-11T06:35:42.090Z,94971.91
2019-05-11T06:38:11.215Z,94969.59
2019-05-11T06:40:40.420Z,94972.48
2019-05-11T06:43:09.560Z,94977.98
2019-05-11T06:45:38.753Z,94975.36
2019-05-11T06:48:07.872Z,94976.55
2019-05-11T06:50:37.036Z,94973.27
2019-05-11T06:53:06.363Z,94969.00
2019-05-11T06:55:35.504Z,94963.06
2019-05-11T06:58:04.629Z,94953.78
2019-05-11T07:00:33.779Z,94955.73
2019-05-11T07:03:02.985Z,94941.51
2019-05-11T07:05:32.269Z,94949.66
2019-05-11T07:08:01.531Z,94939.99
2019-05-11T07:10:30.661Z,94949.09
2019-05-11T07:12:59.795Z,94972.41
2019-05-11T07:15:29.019Z,94975.16
2019-05-11T07:17:58.144Z,94964.77
2019-05-11T07:20:27.263Z,94967.64
2019-05-11T07:22:56.427Z,94970.28
2019-05-11T07:25:25.558Z,94968.91
2019-05-11T07:27:54.729Z,94964.09
2019-05-11T07:30:23.880Z,94958.05
2019-05-11T07:32:52.987Z,94954.05
2019-05-11T07:35:22.119Z,94962.55
2019-05-11T07:37:51.285Z,94953.69
2019-05-11T07:40:20.437Z,94953.59
2019-05-11T07:42:49.715Z,94945.53
2019-05-11T07:45:19.242Z,94942.48
2019-05-11T07:47:48.789Z,94947.66
2019-05-11T07:50:18.950Z,94943.64
2019-05-11T07:52:48.452Z,94940.63
2019-05-11T07:55:19.011Z,94947.51
2019-05-11T07:57:48.448Z,94933.94
2019-05-11T08:00:18.597Z,94939.41
2019-05-11T08:02:48.162Z,94942.27
2019-05-11T08:05:17.948Z,94937.53
2019-05-11T08:07:48.162Z,94947.27
2019-05-11T08:10:18.588Z,94944.35
2019-05-11T08:12:48.252Z,94944.89
2019-05-11T08:15:18.549Z,94929.91
2019-05-11T08:17:48.753Z,94930.23
2019-05-11T08:20:18.808Z,94932.91
2019-05-11T08:22:48.396Z,94946.11
2019-05-11T08:25:18.352Z,94940.39
2019-05-11T08:27:48.478Z,94942.03
2019-05-11T08:30:19.289Z,94940.09
2019-05-11T08:32:49.384Z,94945.33
2019-05-11T08:35:19.248Z,94941.97
2019-05-11T08:37:48.365Z,94936.37
2019-05-11T08:40:18.761Z,94934.37
2019-05-11T08:42:48.391Z,94946.25
2019-05-11T08:45:24.230Z,94941.94
2019-05-11T08:47:48.728Z,94938.86
2019-05-11T08:50:18.783Z,94943.64
2019-05-11T08:52:48.160Z,94932.40
2019-05-11T08:55:18.981Z,94934.23
2019-05-11T08:57:48.292Z,94926.44
2019-05-11T09:00:18.209Z,94932.15
2019-05-11T09:02:50.465Z,94931.19
2019-05-11T09:05:18.829Z,94930.71
2019-05-11T09:07:48.567Z,94937.94
2019-05-11T09:10:18.612Z,94928.48
2019-05-11T09:12:48.828Z,94928.88
2019-05-11T09:15:32.710Z,94930.84
2019-05-11T09:17:49.119Z,94936.26
2019-05-11T09:20:18.259Z,94932.95
2019-05-11T09:22:48.472Z,94947.45
2019-05-11T09:25:18.489Z,94948.78
2019-05-11T09:27:48.400Z,94942.10
2019-05-11T09:30:18.607Z,94942.27
2019-05-11T09:32:47.976Z,94948.84
2019-05-11T09:35:18.952Z,94949.60
2019-05-11T09:37:48.584Z,94955.63
2019-05-11T09:40:18.389Z,94952.12
2019-05-11T09:42:48.042Z,94958.05
2019-05-11T09:45:18.682Z,94973.62
2019-05-11T09:47:48.178Z,94960.30
2019-05-11T09:50:18.865Z,94964.55
2019-05-11T09:52:48.910Z,94978.66
2019-05-11T09:55:19.255Z,94960.29
2019-05-11T09:57:48.835Z,94963.81
2019-05-11T10:00:18.740Z,94969.59
2019-05-11T10:02:48.792Z,94967.38
2019-05-11T10:05:20.044Z,94965.84
2019-05-11T10:07:49.222Z,94977.56
2019-05-11T10:10:18.994Z,94970.89
2019-05-11T10:12:48.969Z,94973.73
2019-05-11T10:15:19.840Z,94963.63
2019-05-11T10:17:49.026Z,94978.17
2019-05-11T10:20:18.402Z,94970.99
2019-05-11T10:22:48.646Z,94975.44
2019-05-11T10:25:18.378Z,94975.06
2019-05-11T10:27:48.834Z,94980.75
2019-05-11T10:30:18.793Z,94972.59
2019-05-11T10:32:48.493Z,94966.49
2019-05-11T10:35:18.526Z,94977.54
2019-05-11T10:37:47.965Z,94963.87
2019-05-11T10:40:18.968Z,94972.90
2019-05-11T10:42:48.585Z,94963.64
2019-05-11T10:45:18.122Z,94970.37
2019-05-11T10:47:48.928Z,94959.00
2019-05-11T10:50:18.912Z,94953.75
2019-05-11T10:52:48.504Z,94962.94
2019-05-11T10:55:19.357Z,94956.95
2019-05-11T10:57:48.898Z,94959.13
2019-05-11T11:00:18.782Z,94953.72
2019-05-11T11:02:47.968Z,94950.33
2019-05-11T11:05:18.801Z,94969.24
2019-05-11T11:07:48.526Z,94959.83
2019-05-11T11:10:18.396Z,94954.13
2019-05-11T11:12:49.053Z,94948.19
2019-05-11T11:15:18.721Z,94939.94
2019-05-11T11:17:48.690Z,94938.03
2019-05-11T11:20:18.716Z,94940.95
2019-05-11T11:22:48.409Z,94942.89
2019-05-11T11:25:18.178Z,94942.64
2019-05-11T11:27:48.643Z,94954.77
2019-05-11T11:30:18.623Z,94945.95
2019-05-11T11:32:48.391Z,94953.36
2019-05-11T11:35:18.758Z,94962.45
2019-05-11T11:37:48.256Z,94962.16
2019-05-11T11:40:17.986Z,94971.48
2019-05-11T11:42:47.828Z,94974.17
2019-05-11T11:45:18.301Z,94972.86
2019-05-11T11:47:49.412Z,94978.42
2019-05-11T11:50:18.631Z,94981.84
2019-05-11T11:52:47.860Z,94979.36
2019-05-11T11:55:18.562Z,94975.91
2019-05-11T11:57:49.043Z,94973.20
2019-05-11T12:00:20.067Z,94979.36
2019-05-11T12:02:49.221Z,94983.75
2019-05-11T12:05:18.501Z,94972.61
2019-05-11T12:07:48.988Z,94984.02
2019-05-11T12:10:19.790Z,94993.29
2019-05-11T12:12:49.160Z,94990.28
2019-05-11T12:15:18.435Z,94991.65
2019-05-11T12:17:48.332Z,94991.20
2019-05-11T12:20:18.320Z,94999.06
2019-05-11T12:22:47.740Z,94998.53
2019-05-11T12:25:18.575Z,94997.84
2019-05-11T12:27:49.127Z,94991.38
2019-05-11T12:30:18.535Z,94991.05
2019-05-11T12:32:49.677Z,94996.39
2019-05-11T12:35:19.339Z,94999.30
2019-05-11T12:37:48.685Z,94984.73
2019-05-11T12:40:18.850Z,94976.34
2019-05-11T12:42:48.928Z,94973.91
2019-05-11T12:45:18.614Z,94977.17
2019-05-11T12:47:48.171Z,94978.34
2019-05-11T12:50:18.698Z,94976.45
2019-05-11T12:52:47.936Z,94974.10
2019-05-11T12:55:18.045Z,94982.77
2019-05-11T12:57:48.075Z,94994.18
2019-05-11T13:00:18.052Z,94994.80
2019-05-11T13:02:48.388Z,94999.14
2019-05-11T13:05:18.168Z,94981.24
2019-05-11T13:07:48.200Z,94968.82
2019-05-11T13:10:17.999Z,94965.48
2019-05-11T13:12:49.240Z,94973.39
2019-05-11T13:15:18.185Z,94974.55
2019-05-11T13:17:49.187Z,94978.19
2019-05-11T13:20:18.294Z,94969.16
2019-05-11T13:22:48.922Z,94976.28
2019-05-11T13:25:18.331Z,94991.00
2019-05-11T13:27:49.147Z,95020.28
2019-05-11T13:30:18.907Z,95012.18
2019-05-11T13:32:49.014Z,95015.46
2019-05-11T13:35:18.448Z,95021.28
2019-05-11T13:37:48.079Z,95018.92
2019-05-11T13:40:18.478Z,95034.30
2019-05-11T13:42:48.977Z,95045.09
2019-05-11T13:45:18.369Z,95055.11
2019-05-11T13:47:52.544Z,95044.56
2019-05-11T13:50:18.430Z,95045.30
2019-05-11T13:52:47.927Z,95050.00
2019-05-11T13:55:18.265Z,95062.70
2019-05-11T13:57:48.535Z,95065.05
2019-05-11T14:00:18.307Z,95049.34
2019-05-11T14:02:48.632Z,95047.12
2019-05-11T14:05:18.244Z,95044.55
2019-05-11T14:07:48.372Z,95044.69
2019-05-11T14:10:18.293Z,95032.99
2019-05-11T14:12:47.890Z,95031.55
2019-05-11T14:15:18.884Z,95009.22
2019-05-11T14:17:48.770Z,94994.37
2019-05-11T14:20:19.241Z,94999.38
2019-05-11T14:22:48.478Z,95015.00
2019-05-11T14:25:18.696Z,95049.84
2019-05-11T14:27:48.137Z,95045.00
2019-05-11T14:30:19.153Z,95050.19
2019-05-11T14:32:48.580Z,95056.45
2019-05-11T14:35:18.828Z,95053.28
2019-05-11T14:37:48.807Z,95068.97
2019-05-11T14:40:18.432Z,95052.66
2019-05-11T14:42:48.967Z,95063.30
2019-05-11T14:45:19.009Z,95072.66
2019-05-11T14:47:48.438Z,95090.86
2019-05-11T14:50:18.798Z,95080.91
2019-05-11T14:52:49.039Z,95091.95
2019-05-11T14:55:18.666Z,95093.34
2019-05-11T14:57:48.599Z,95088.62
2019-05-11T15:00:19.736Z,95099.31
2019-05-11T15:02:49.972Z,95097.36
2019-05-11T15:05:21.142Z,95112.33
2019-05-11T15:07:52.567Z,95102.52
2019-05-11T15:10:21.855Z,95095.35
2019-05-11T15:12:51.065Z,95091.12
2019-05-11T15:15:20.659Z,95090.98
2019-05-11T15:17:49.855Z,95100.81
2019-05-11T15:20:19.389Z,95120.95
2019-05-11T15:22:49.016Z,95090.45
2019-05-11T15:25:19.573Z,95103.80
2019-05-11T15:27:49.182Z,95087.77
2019-05-11T15:30:18.737Z,95100.20
2019-05-11T15:32:48.440Z,95100.73
2019-05-11T15:35:18.509Z,95103.69
2019-05-11T15:37:48.304Z,95104.47
2019-05-11T15:40:19.513Z,95104.38
2019-05-11T15:42:48.984Z,95103.58
2019-05-11T15:45:19.716Z,95104.19
2019-05-11T15:47:49.173Z,95109.23
2019-05-11T15:50:19.203Z,95111.05
2019-05-11T15:52:49.157Z,95122.64
2019-05-11T15:55:19.276Z,95127.06
2019-05-11T15:57:48.637Z,95144.78
2019-05-11T16:00:18.644Z,95145.39
2019-05-11T16:02:48.922Z,95156.78
2019-05-11T16:05:19.067Z,95154.20
2019-05-11T16:07:49.123Z,95150.36
2019-05-11T16:10:19.734Z,95140.33
2019-05-11T16:12:49.312Z,95144.52
2019-05-11T16:15:19.748Z,95138.23
2019-05-11T16:17:49.230Z,95141.59
2019-05-11T16:20:18.891Z,95159.05
2019-05-11T16:22:48.425Z,95155.26
2019-05-11T16:25:20.066Z,95157.56
2019-05-11T16:27:49.638Z,95140.67
2019-05-11T16:30:21.647Z,95162.33
2019-05-11T16:32:49.651Z,95153.63
2019-05-11T16:35:19.534Z,95149.30
2019-05-11T16:37:48.946Z,95138.50
2019-05-11T16:40:20.743Z,95148.80
2019-05-11T16:42:49.641Z,95167.28
2019-05-11T16:45:23.567Z,95178.57
2019-05-11T16:47:51.056Z,95195.84
2019-05-11T16:50:20.222Z,95175.41
2019-05-11T16:52:49.484Z,95203.55
2019-05-11T16:55:21.745Z,95177.48
2019-05-11T16:57:50.941Z,95186.72
2019-05-11T17:00:20.316Z,95173.17
2019-05-11T17:02:49.841Z,95180.02
2019-05-11T17:05:26.360Z,95179.84
2019-05-11T17:07:49.954Z,95181.03
2019-05-11T17:10:22.780Z,95185.64
2019-05-11T17:12:52.004Z,95179.33
2019-05-11T17:15:21.247Z,95176.73
2019-05-11T17:17:50.450Z,95187.06
2019-05-11T17:20:19.682Z,95194.72
2019-05-11T17:22:49.179Z,95195.59
2019-05-11T17:25:19.853Z,95199.08
2019-05-11T17:27:49.399Z,95220.24
2019-05-11T17:30:19.808Z,95240.77
2019-05-11T17:32:49.784Z,95248.65
2019-05-11T17:35:19.995Z,95258.27
2019-05-11T17:37:51.629Z,95258.55
2019-05-11T17:40:23.493Z,95272.49
2019-05-11T17:42:53.946Z,95276.92
2019-05-11T17:45:23.184Z,95283.05
2019-05-11T17:47:52.453Z,95295.45
2019-05-11T17:50:21.668Z,95296.69
2019-05-11T17:52:50.963Z,95288.92
2019-05-11T17:55:22.159Z,95301.20
2019-05-11T17:57:53.900Z,95302.03
2019-05-11T18:00:22.633Z,95302.20
2019-05-11T18:02:51.881Z,95311.25
2019-05-11T18:05:21.138Z,95314.98
2019-05-11T18:07:50.530Z,95311.08
2019-05-11T18:10:21.338Z,95316.02
2019-05-11T18:12:50.528Z,95314.71
2019-05-11T18:15:20.015Z,95319.47
2019-05-11T18:17:49.497Z,95329.34
2019-05-11T18:20:21.976Z,95335.19
2019-05-11T18:22:50.612Z,95342.99
2019-05-11T18:25:19.804Z,95343.03
2019-05-11T18:27:49.114Z,95342.88
2019-05-11T18:30:19.053Z,95349.47
2019-05-11T18:32:49.379Z,95352.63
2019-05-11T18:35:20.125Z,95355.43
2019-05-11T18:37:51.561Z,95363.44
2019-05-11T18:40:28.691Z,95364.75
2019-05-11T18:43:02.295Z,95364.55
2019-05-11T18:45:30.828Z,95350.53
2019-05-11T18:48:00.141Z,95350.33
2019-05-11T18:50:31.312Z,95356.05
2019-05-11T18:53:01.409Z,95363.09
2019-05-11T18:55:34.098Z,95368.34
2019-05-11T18:58:03.392Z,95380.30
2019-05-11T19:00:33.860Z,95375.52
2019-05-11T19:03:03.121Z,95384.42
2019-05-11T19:05:32.404Z,95371.33
2019-05-11T19:08:03.143Z,95388.23
2019-05-11T19:10:32.628Z,95378.52
2019-05-11T19:13:01.952Z,95380.86
2019-05-11T19:15:31.494Z,95388.48
2019-05-11T19:18:00.734Z,95383.52
2019-05-11T19:20:44.555Z,95388.98
2019-05-11T19:23:02.332Z,95393.59
2019-05-11T19:25:31.921Z,95398.87
2019-05-11T19:28:01.191Z,95398.06
2019-05-11T19:30:32.254Z,95410.80
2019-05-11T19:33:01.487Z,95403.90
2019-05-11T19:35:31.212Z,95409.12
2019-05-11T19:38:00.463Z,95410.11
2019-05-11T19:40:30.629Z,95414.09
2019-05-11T19:43:05.109Z,95421.36
2019-05-11T19:45:38.313Z,95416.23
2019-05-11T19:48:08.357Z,95413.94
2019-05-11T19:50:40.914Z,95424.05
2019-05-11T19:53:10.093Z,95425.45
2019-05-11T19:55:40.497Z,95424.53
2019-05-11T19:58:09.693Z,95424.42
2019-05-11T20:00:39.123Z,95427.52
2019-05-11T20:03:09.142Z,95435.75
2019-05-11T20:05:38.767Z,95435.37
2019-05-11T20:08:10.637Z,95439.48
2019-05-11T20:10:40.218Z,95447.11
2019-05-11T20:13:09.981Z,95451.69
2019-05-11T20:15:39.338Z,95451.69
2019-05-11T20:18:08.558Z,95447.12
2019-05-11T20:20:37.847Z,95456.03
2019-05-11T20:23:07.806Z,95450.24
2019-05-11T20:25:37.972Z,95447.58
2019-05-11T20:28:07.439Z,95463.92
2019-05-11T20:30:36.751Z,95469.62
2019-05-11T20:33:05.904Z,95471.83
2019-05-11T20:35:35.191Z,95466.95
2019-05-11T20:38:04.370Z,95469.58
2019-05-11T20:40:40.933Z,95462.38
2019-05-11T20:43:10.660Z,95472.67
2019-05-11T20:45:39.887Z,95472.67
2019-05-11T20:48:09.636Z,95475.74
2019-05-11T20:50:39.090Z,95477.45
2019-05-11T20:53:08.671Z,95478.67
2019-05-11T20:55:37.933Z,95488.31
2019-05-11T20:58:08.634Z,95492.92
2019-05-11T21:00:38.404Z,95495.45
2019-05-11T21:03:08.173Z,95492.92
2019-05-11T21:05:37.335Z,95501.00
2019-05-11T21:08:08.523Z,95513.14
2019-05-11T21:10:38.654Z,95514.80
2019-05-11T21:13:08.581Z,95511.64
2019-05-11T21:15:38.541Z,95512.86
2019-05-11T21:18:10.089Z,95517.73
2019-05-11T21:20:39.609Z,95523.30
2019-05-11T21:23:08.788Z,95515.46
2019-05-11T21:25:37.985Z,95516.20
2019-05-11T21:28:08.475Z,95511.89
2019-05-11T21:30:39.987Z,95513.42
2019-05-11T21:33:08.844Z,95520.78
2019-05-11T21:35:38.595Z,95518.42
2019-05-11T21:38:07.875Z,95523.78
2019-05-11T21:40:38.078Z,95529.53
2019-05-11T21:43:08.777Z,95528.30
2019-05-11T21:45:40.495Z,95532.30
2019-05-11T21:48:08.992Z,95529.63
2019-05-11T21:50:38.325Z,95539.33
2019-05-11T21:53:10.203Z,95532.35
2019-05-11T21:55:38.303Z,95543.53
2019-05-11T21:58:09.037Z,95535.02
2019-05-11T22:00:38.819Z,95536.27
2019-05-11T22:03:10.192Z,95532.20
2019-05-11T22:05:38.873Z,95534.19
2019-05-11T22:08:08.695Z,95542.95
2019-05-11T22:10:38.548Z,95549.81
2019-05-11T22:13:07.930Z,95549.62
2019-05-11T22:15:38.550Z,95560.23
2019-05-11T22:18:08.168Z,95556.04
2019-05-11T22:20:40.668Z,95563.94
2019-05-11T22:23:08.624Z,95558.25
2019-05-11T22:25:38.354Z,95562.06
2019-05-11T22:28:08.515Z,95564.69
2019-05-11T22:30:39.243Z,95565.03
2019-05-11T22:33:08.943Z,95558.92
2019-05-11T22:35:38.499Z,95553.23
2019-05-11T22:38:08.390Z,95558.16
2019-05-11T22:40:38.361Z,95568.23
2019-05-11T22:43:09.375Z,95571.67
2019-05-11T22:45:38.772Z,95586.59
2019-05-11T22:48:08.135Z,95580.28
2019-05-11T22:50:38.253Z,95585.75
2019-05-11T22:53:08.679Z,95586.63
2019-05-11T22:55:38.427Z,95587.33
2019-05-11T22:58:08.564Z,95586.14
2019-05-11T23:00:42.999Z,95588.70
2019-05-11T23:03:13.873Z,95584.37
2019-05-11T23:05:43.330Z,95585.46
2019-05-11T23:08:12.580Z,95581.72
2019-05-11T23:10:41.735Z,95581.83
2019-05-11T23:13:11.608Z,95572.19
2019-05-11T23:15:40.903Z,95573.20
2019-05-11T23:18:10.040Z,95579.41
2019-05-11T23:20:39.177Z,95576.44
2019-05-11T23:23:08.875Z,95583.88
2019-05-11T23:25:38.248Z,95578.21
2019-05-11T23:28:07.389Z,95573.01
2019-05-11T23:30:38.679Z,95574.19
2019-05-11T23:33:07.917Z,95573.36
2019-05-11T23:35:38.226Z,95569.41
2019-05-11T23:38:07.635Z,95570.23
2019-05-11T23:40:37.965Z,95573.84
2019-05-11T23:43:08.675Z,95572.48
2019-05-11T23:45:38.419Z,95568.11
2019-05-11T23:48:07.656Z,95560.27
2019-05-11T23:50:38.583Z,95566.53
2019-05-11T23:53:10.203Z,95573.08
2019-05-11T23:55:38.605Z,95571.66
2019-05-11T23:58:08.268Z,95575.61
